Time;durP1;ratioP1;P1;durP2;ratioP2;P2;SDS_P1;SDS_P2;PMS_P1;PMS_P2;Temp;Humidity;BMP_temperature;BMP_pressure;BME280_temperature;BME280_humidity;BME280_pressure;Samples;Min_cycle;Max_cycle;Signal;HPM_P1;HPM_P2
2022/10/09 00:01:32;;;;;;;3.33;0.70;;;22.80;41.90;;;;;;5069201;28;20040;-52
2022/10/09 00:04:00;;;;;;;0.93;0.38;;;22.80;41.90;;;;;;5068795;28;20080;-51
2022/10/09 00:06:30;;;;;;;2.00;0.22;;;22.80;42.00;;;;;;5061062;28;20037;-49
2022/10/09 00:08:58;;;;;;;0.77;0.40;;;22.80;42.00;;;;;;5062110;28;20119;-50
2022/10/09 00:11:28;;;;;;;1.40;0.20;;;22.80;42.00;;;;;;5060808;28;20045;-50
2022/10/09 00:13:56;;;;;;;1.77;0.40;;;22.80;42.00;;;;;;5049802;28;20037;-48
2022/10/09 00:16:24;;;;;;;3.25;0.82;;;22.80;42.10;;;;;;5050501;28;20044;-50
2022/10/09 00:18:53;;;;;;;1.95;0.57;;;22.80;42.10;;;;;;5055460;28;20080;-47
2022/10/09 00:21:22;;;;;;;2.42;0.30;;;22.80;42.00;;;;;;5049357;28;20032;-49
2022/10/09 00:23:50;;;;;;;1.05;0.50;;;22.80;42.00;;;;;;5049473;28;20553;-51
2022/10/09 00:26:17;;;;;;;0.93;0.47;;;22.80;42.10;;;;;;5051232;28;20083;-49
2022/10/09 00:28:45;;;;;;;0.73;0.57;;;22.80;42.10;;;;;;5066153;28;20069;-54
2022/10/09 00:31:13;;;;;;;1.05;0.20;;;22.80;42.10;;;;;;5068605;28;20041;-51
2022/10/09 00:33:40;;;;;;;2.60;0.40;;;22.80;42.00;;;;;;5066327;28;20080;-49
2022/10/09 00:36:11;;;;;;;0.95;0.30;;;22.80;42.00;;;;;;5049162;28;20505;-49
2022/10/09 00:38:38;;;;;;;1.58;0.20;;;22.80;41.90;;;;;;5054485;28;20536;-48
2022/10/09 00:41:06;;;;;;;2.15;0.45;;;22.80;41.90;;;;;;5068308;28;20751;-53
2022/10/09 00:43:39;;;;;;;3.03;0.30;;;22.80;41.90;;;;;;5068464;28;20044;-51
2022/10/09 00:46:10;;;;;;;1.38;0.50;;;22.80;41.80;;;;;;5051512;28;20060;-48
2022/10/09 00:48:37;;;;;;;0.82;0.40;;;22.80;41.70;;;;;;5055529;28;20141;-50
2022/10/09 00:51:04;;;;;;;3.05;0.30;;;22.80;41.60;;;;;;5049347;28;20051;-48
2022/10/09 00:53:32;;;;;;;2.90;0.35;;;22.80;41.60;;;;;;5050153;28;20048;-49
2022/10/09 00:55:59;;;;;;;1.30;0.45;;;22.80;41.60;;;;;;5065372;28;20036;-48
2022/10/09 00:58:26;;;;;;;2.15;0.30;;;22.80;41.60;;;;;;5068216;28;20048;-48
2022/10/09 01:00:54;;;;;;;1.77;0.22;;;22.80;41.60;;;;;;5067125;28;20051;-49
2022/10/09 01:03:21;;;;;;;1.65;0.75;;;22.80;41.70;;;;;;5067744;28;20044;-49
2022/10/09 01:06:05;;;;;;;1.02;0.25;;;22.80;41.70;;;;;;5066798;28;20043;-48
2022/10/09 01:08:39;;;;;;;1.08;0.20;;;22.80;41.70;;;;;;5058694;28;20091;-50
2022/10/09 01:11:16;;;;;;;3.45;0.40;;;22.80;41.70;;;;;;5042210;28;20063;-48
2022/10/09 01:13:51;;;;;;;1.08;0.30;;;22.80;41.70;;;;;;5054650;28;20598;-53
2022/10/09 01:16:22;;;;;;;0.85;0.30;;;22.80;41.70;;;;;;5050077;28;20033;-51
2022/10/09 01:18:54;;;;;;;0.82;0.40;;;22.80;41.70;;;;;;5056597;28;20047;-49
2022/10/09 01:21:25;;;;;;;1.45;0.32;;;22.80;41.70;;;;;;5057435;28;20127;-52
2022/10/09 01:24:21;;;;;;;6.90;0.28;;;22.80;41.70;;;;;;5066064;28;20040;-49
2022/10/09 01:27:09;;;;;;;0.68;0.20;;;22.80;41.60;;;;;;5060101;28;20041;-54
2022/10/09 01:29:40;;;;;;;2.03;0.43;;;22.80;41.70;;;;;;5067154;28;20131;-51
2022/10/09 01:32:10;;;;;;;1.80;0.20;;;22.70;41.80;;;;;;5066025;28;20048;-52
2022/10/09 01:34:39;;;;;;;0.90;0.30;;;22.70;41.80;;;;;;5067472;28;20070;-51
2022/10/09 01:37:07;;;;;;;2.33;0.20;;;22.70;41.70;;;;;;5058133;28;20468;-49
2022/10/09 01:39:36;;;;;;;2.13;0.20;;;22.70;41.80;;;;;;5047753;28;20049;-49
2022/10/09 01:42:05;;;;;;;1.10;0.30;;;22.70;41.80;;;;;;5051167;28;20123;-48
2022/10/09 01:44:34;;;;;;;2.33;0.25;;;22.70;41.90;;;;;;5047757;28;20135;-48
2022/10/09 01:47:03;;;;;;;4.47;1.38;;;22.70;41.80;;;;;;5059985;28;20048;-50
2022/10/09 01:49:41;;;;;;;2.35;0.10;;;22.70;41.80;;;;;;5050866;28;20041;-52
2022/10/09 01:52:18;;;;;;;0.65;0.50;;;22.70;41.80;;;;;;5047998;28;20033;-52
2022/10/09 01:54:53;;;;;;;1.20;0.65;;;22.70;41.80;;;;;;5061057;28;20560;-50
2022/10/09 01:57:28;;;;;;;1.15;0.32;;;22.70;41.80;;;;;;5067020;28;20536;-52
2022/10/09 01:59:58;;;;;;;3.25;0.85;;;22.70;41.70;;;;;;5053663;28;20397;-49
2022/10/09 02:02:26;;;;;;;0.40;0.28;;;22.70;41.90;;;;;;5054283;28;20454;-58
2022/10/09 02:04:53;;;;;;;0.65;0.52;;;22.70;42.40;;;;;;5065908;28;20037;-53
2022/10/09 02:07:22;;;;;;;0.55;0.30;;;22.70;42.80;;;;;;5060155;28;20116;-55
2022/10/09 02:09:49;;;;;;;2.10;0.28;;;22.70;43.10;;;;;;5047701;28;20041;-53
2022/10/09 02:12:20;;;;;;;1.58;0.32;;;22.70;43.30;;;;;;5058299;28;20047;-55
2022/10/09 02:14:49;;;;;;;2.20;0.65;;;22.80;43.60;;;;;;5055506;28;20044;-56
2022/10/09 02:17:21;;;;;;;2.42;0.30;;;22.80;43.60;;;;;;5047497;28;20568;-58
2022/10/09 02:19:51;;;;;;;1.05;0.32;;;22.90;43.60;;;;;;5066142;28;20120;-58
2022/10/09 02:22:22;;;;;;;3.08;0.20;;;22.90;43.60;;;;;;5056465;28;20045;-57
2022/10/09 02:24:49;;;;;;;1.15;0.50;;;23.00;43.50;;;;;;5066784;28;20072;-57
2022/10/09 02:27:18;;;;;;;2.65;0.30;;;23.10;43.40;;;;;;5060426;28;20060;-47
2022/10/09 02:29:48;;;;;;;1.65;0.50;;;23.20;43.10;;;;;;5039274;28;20040;-45
2022/10/09 02:32:16;;;;;;;1.65;0.25;;;23.30;42.80;;;;;;5042563;28;20117;-45
2022/10/09 02:34:43;;;;;;;0.70;0.30;;;23.40;42.50;;;;;;5044478;28;20069;-46
2022/10/09 02:37:10;;;;;;;1.67;0.20;;;23.40;42.30;;;;;;5046959;28;20383;-45
2022/10/09 02:39:37;;;;;;;0.70;0.30;;;23.40;42.10;;;;;;5065058;28;20127;-46
2022/10/09 02:42:04;;;;;;;7.85;0.50;;;23.50;42.00;;;;;;5046506;28;20533;-46
2022/10/09 02:44:31;;;;;;;17.88;2.38;;;23.50;42.10;;;;;;5062602;28;20128;-48
2022/10/09 02:47:00;;;;;;;15.43;0.75;;;23.50;42.20;;;;;;5050863;28;20037;-50
2022/10/09 02:49:27;;;;;;;8.43;0.90;;;23.50;42.10;;;;;;5046528;28;20187;-50
2022/10/09 02:51:54;;;;;;;8.25;0.60;;;23.50;42.10;;;;;;5047252;28;20036;-55
2022/10/09 02:54:21;;;;;;;9.32;1.17;;;23.50;42.10;;;;;;5040177;28;20536;-53
2022/10/09 02:56:48;;;;;;;7.90;0.40;;;23.50;42.00;;;;;;5040834;28;20037;-52
2022/10/09 02:59:15;;;;;;;7.20;0.43;;;23.50;41.90;;;;;;5066207;28;20067;-52
2022/10/09 03:01:42;;;;;;;12.35;0.70;;;23.50;41.90;;;;;;5052354;28;20048;-50
2022/10/09 03:04:10;;;;;;;6.85;0.70;;;23.60;41.80;;;;;;5050138;28;20064;-51
2022/10/09 03:06:37;;;;;;;5.90;0.60;;;23.50;41.60;;;;;;5066831;28;20044;-53
2022/10/09 03:09:04;;;;;;;3.33;1.33;;;23.60;41.50;;;;;;5066636;28;20530;-51
2022/10/09 03:11:31;;;;;;;0.90;0.55;;;23.60;41.40;;;;;;5067655;28;20037;-52
2022/10/09 03:13:58;;;;;;;2.47;0.73;;;23.50;41.20;;;;;;5070248;28;20083;-52
2022/10/09 03:16:26;;;;;;;3.78;0.40;;;23.60;41.20;;;;;;5070043;28;20515;-50
2022/10/09 03:18:54;;;;;;;5.80;0.30;;;23.60;41.10;;;;;;5058047;28;20044;-54
2022/10/09 03:21:24;;;;;;;3.65;0.47;;;23.60;41.10;;;;;;5050763;28;20464;-54
2022/10/09 03:23:52;;;;;;;1.95;0.20;;;23.60;41.00;;;;;;5044131;28;20120;-55
2022/10/09 03:26:22;;;;;;;1.45;0.45;;;23.60;41.00;;;;;;5044123;28;20076;-52
2022/10/09 03:28:50;;;;;;;1.55;0.55;;;23.60;41.50;;;;;;5063584;28;20481;-54
2022/10/09 03:31:19;;;;;;;8.23;0.60;;;23.50;40.80;;;;;;5069646;28;20051;-54
2022/10/09 03:33:46;;;;;;;2.08;0.40;;;23.60;40.90;;;;;;5069642;28;20881;-54
2022/10/09 03:36:13;;;;;;;1.25;0.30;;;23.50;40.80;;;;;;5069761;28;20041;-53
2022/10/09 03:38:41;;;;;;;2.45;0.73;;;23.50;40.80;;;;;;5069384;28;20044;-53
2022/10/09 03:41:08;;;;;;;2.63;0.20;;;23.50;40.80;;;;;;5069335;28;20538;-50
2022/10/09 03:43:36;;;;;;;2.25;0.30;;;23.50;40.80;;;;;;5057413;28;20120;-54
2022/10/09 03:46:06;;;;;;;2.20;0.40;;;23.50;40.70;;;;;;5050189;28;20059;-55
2022/10/09 03:48:33;;;;;;;0.73;0.13;;;23.50;40.70;;;;;;5055816;28;20439;-51
2022/10/09 03:51:00;;;;;;;0.47;0.10;;;23.50;40.70;;;;;;5069673;28;20094;-52
2022/10/09 03:53:27;;;;;;;1.33;0.20;;;23.50;40.70;;;;;;5063942;28;20047;-55
2022/10/09 03:55:56;;;;;;;0.40;0.10;;;23.50;40.70;;;;;;5069327;28;20382;-53
2022/10/09 03:58:23;;;;;;;0.77;0.38;;;23.40;40.60;;;;;;5069435;28;20049;-55
2022/10/09 04:00:51;;;;;;;0.82;0.82;;;23.40;40.60;;;;;;5068982;28;20060;-51
2022/10/09 04:03:18;;;;;;;3.03;0.40;;;23.40;40.50;;;;;;5066831;28;20048;-54
2022/10/09 04:05:45;;;;;;;1.60;0.13;;;23.40;40.60;;;;;;5069038;28;20102;-53
2022/10/09 04:08:12;;;;;;;0.65;0.30;;;23.40;41.30;;;;;;5068832;28;20045;-52
2022/10/09 04:10:39;;;;;;;1.17;0.20;;;23.40;40.60;;;;;;5068751;28;20041;-52
2022/10/09 04:13:07;;;;;;;1.02;0.10;;;23.30;40.50;;;;;;5068991;28;20119;-54
2022/10/09 04:15:35;;;;;;;1.95;0.20;;;23.30;40.50;;;;;;5064391;28;20501;-52
2022/10/09 04:18:03;;;;;;;0.88;0.57;;;23.30;40.60;;;;;;5056172;28;20041;-54
2022/10/09 04:20:30;;;;;;;1.20;0.20;;;23.30;40.70;;;;;;5069169;28;20400;-53
2022/10/09 04:22:57;;;;;;;0.30;0.30;;;23.30;40.60;;;;;;5067784;28;20044;-51
2022/10/09 04:25:24;;;;;;;0.60;0.15;;;23.30;40.60;;;;;;5068027;28;20045;-52
2022/10/09 04:27:51;;;;;;;0.70;0.10;;;23.30;40.30;;;;;;5065766;28;20049;-53
2022/10/09 04:30:19;;;;;;;2.22;0.15;;;23.30;40.40;;;;;;5068685;28;20043;-53
2022/10/09 04:32:47;;;;;;;0.52;0.10;;;23.30;40.60;;;;;;5064776;28;20052;-53
2022/10/09 04:35:15;;;;;;;2.13;0.30;;;23.20;40.70;;;;;;5068697;28;20094;-51
2022/10/09 04:37:42;;;;;;;2.55;0.40;;;23.20;40.60;;;;;;5068269;28;20041;-53
2022/10/09 04:40:09;;;;;;;0.40;0.20;;;23.20;40.60;;;;;;5055014;28;20074;-51
2022/10/09 04:42:37;;;;;;;0.60;0.10;;;23.20;40.60;;;;;;5062511;28;20041;-52
2022/10/09 04:45:05;;;;;;;1.52;0.15;;;23.20;40.50;;;;;;5068448;28;20044;-52
2022/10/09 04:47:34;;;;;;;0.30;0.10;;;23.20;40.50;;;;;;5068182;28;20048;-52
2022/10/09 04:50:01;;;;;;;1.35;0.30;;;23.20;40.40;;;;;;5058843;28;20049;-51
2022/10/09 04:52:28;;;;;;;0.77;0.10;;;23.20;40.50;;;;;;5056148;28;20140;-53
2022/10/09 04:54:55;;;;;;;2.83;0.28;;;23.20;40.50;;;;;;5056428;28;20052;-51
2022/10/09 04:57:22;;;;;;;0.30;0.10;;;23.10;40.40;;;;;;5048917;28;20581;-52
2022/10/09 04:59:49;;;;;;;1.75;0.20;;;23.10;40.40;;;;;;5056253;28;20040;-51
2022/10/09 05:02:16;;;;;;;0.70;0.25;;;23.10;40.40;;;;;;5068370;28;20562;-52
2022/10/09 05:04:46;;;;;;;1.50;0.20;;;23.10;40.50;;;;;;5068377;28;20417;-51
2022/10/09 05:07:13;;;;;;;0.77;0.55;;;23.10;40.50;;;;;;5068020;28;20131;-52
2022/10/09 05:09:40;;;;;;;1.45;0.10;;;23.10;40.80;;;;;;5060346;28;20128;-53
2022/10/09 05:12:07;;;;;;;0.20;0.10;;;23.00;40.40;;;;;;5068154;28;20045;-54
2022/10/09 05:14:34;;;;;;;2.17;0.20;;;23.00;40.50;;;;;;5068048;28;20045;-52
2022/10/09 05:17:04;;;;;;;1.25;0.40;;;23.00;40.50;;;;;;5067704;28;20048;-54
2022/10/09 05:19:31;;;;;;;3.83;0.10;;;23.00;40.50;;;;;;5052065;28;20091;-52
2022/10/09 05:22:00;;;;;;;1.02;0.20;;;23.00;40.50;;;;;;5067500;28;20171;-50
2022/10/09 05:24:28;;;;;;;2.63;0.40;;;23.00;40.60;;;;;;5067911;28;20040;-52
2022/10/09 05:26:55;;;;;;;1.48;0.20;;;22.90;40.50;;;;;;5064652;28;20053;-54
2022/10/09 05:29:22;;;;;;;1.20;0.10;;;22.90;40.50;;;;;;5061958;28;20500;-52
2022/10/09 05:31:49;;;;;;;2.28;0.10;;;22.90;40.50;;;;;;5067517;28;20052;-55
2022/10/09 05:34:16;;;;;;;0.30;0.20;;;22.90;40.50;;;;;;5054359;28;20041;-52
2022/10/09 05:36:43;;;;;;;1.08;0.82;;;22.90;40.50;;;;;;5066866;28;20119;-50
2022/10/09 05:39:12;;;;;;;0.60;0.20;;;22.90;40.50;;;;;;5061783;28;20040;-52
2022/10/09 05:41:38;;;;;;;0.90;0.50;;;22.90;40.50;;;;;;5061237;28;20059;-54
2022/10/09 05:44:05;;;;;;;2.00;0.20;;;22.90;40.50;;;;;;5067718;28;20045;-53
2022/10/09 05:46:32;;;;;;;1.92;0.47;;;22.80;40.50;;;;;;5067301;28;20050;-47
2022/10/09 05:49:04;;;;;;;0.82;0.30;;;22.80;40.50;;;;;;5047649;28;20123;-54
2022/10/09 05:51:32;;;;;;;1.40;0.10;;;22.80;40.50;;;;;;5048149;28;20045;-54
2022/10/09 05:54:00;;;;;;;0.25;0.10;;;22.80;40.50;;;;;;5055687;28;20049;-52
2022/10/09 05:56:30;;;;;;;0.30;0.28;;;22.80;40.50;;;;;;5061308;28;20088;-51
2022/10/09 05:58:59;;;;;;;1.05;0.30;;;22.80;40.50;;;;;;5061150;28;20048;-53
2022/10/09 06:01:27;;;;;;;0.65;0.17;;;22.70;40.40;;;;;;5053177;28;20051;-52
2022/10/09 06:03:56;;;;;;;3.53;0.73;;;22.70;40.40;;;;;;5056464;28;20040;-52
2022/10/09 06:06:26;;;;;;;0.30;0.20;;;22.70;40.40;;;;;;5060759;28;20055;-53
2022/10/09 06:08:54;;;;;;;1.55;0.90;;;22.70;40.50;;;;;;5067458;28;20119;-51
2022/10/09 06:11:23;;;;;;;0.50;0.22;;;22.70;40.40;;;;;;5052179;28;20048;-53
2022/10/09 06:13:51;;;;;;;2.00;0.30;;;22.70;40.40;;;;;;5048465;28;20409;-50
2022/10/09 06:16:18;;;;;;;1.40;0.45;;;22.70;40.40;;;;;;5055638;28;20103;-52
2022/10/09 06:18:47;;;;;;;0.45;0.20;;;22.60;40.80;;;;;;5065625;28;20045;-51
2022/10/09 06:21:16;;;;;;;1.00;0.80;;;22.60;40.40;;;;;;5057498;28;20060;-50
2022/10/09 06:23:43;;;;;;;0.40;0.35;;;22.60;40.40;;;;;;5054054;28;20454;-52
2022/10/09 06:26:12;;;;;;;0.40;0.30;;;22.60;40.40;;;;;;5063803;28;20083;-52
2022/10/09 06:28:40;;;;;;;0.30;0.20;;;22.60;40.40;;;;;;5052996;28;20572;-52
2022/10/09 06:31:10;;;;;;;0.65;0.30;;;22.60;40.50;;;;;;5047559;28;20142;-53
2022/10/09 06:33:39;;;;;;;2.85;1.05;;;22.60;40.40;;;;;;5057067;28;20040;-54
2022/10/09 06:36:08;;;;;;;4.05;0.25;;;22.60;40.50;;;;;;5066755;28;20135;-52
2022/10/09 06:38:36;;;;;;;1.10;0.50;;;22.50;40.50;;;;;;5066925;28;20049;-54
2022/10/09 06:41:04;;;;;;;0.80;0.13;;;22.50;40.50;;;;;;5059359;28;20047;-53
2022/10/09 06:43:31;;;;;;;0.35;0.20;;;22.50;40.40;;;;;;5046314;28;20425;-50
2022/10/09 06:46:01;;;;;;;1.05;0.38;;;22.50;40.40;;;;;;5054786;28;20059;-51
2022/10/09 06:48:30;;;;;;;2.42;1.55;;;22.50;40.40;;;;;;5051609;28;20131;-54
2022/10/09 06:51:01;;;;;;;0.85;0.55;;;22.50;40.40;;;;;;5062436;28;20455;-53
2022/10/09 06:53:28;;;;;;;0.73;0.25;;;22.50;40.40;;;;;;5068676;28;20086;-52
2022/10/09 06:55:57;;;;;;;0.75;0.55;;;22.50;40.40;;;;;;5052491;28;20045;-53
2022/10/09 06:58:24;;;;;;;0.85;0.85;;;22.50;40.40;;;;;;5056579;28;20037;-50
2022/10/09 07:01:01;;;;;;;1.08;0.20;;;22.50;40.40;;;;;;5070517;28;20417;-50
2022/10/09 07:03:30;;;;;;;1.77;0.50;;;22.50;40.40;;;;;;5070278;28;20124;-52
2022/10/09 07:06:06;;;;;;;0.35;0.30;;;22.50;40.50;;;;;;5047068;28;20132;-54
2022/10/09 07:08:33;;;;;;;1.00;0.30;;;22.50;40.40;;;;;;5046747;28;20045;-52
2022/10/09 07:11:00;;;;;;;2.13;0.77;;;22.40;41.00;;;;;;5056487;28;20509;-54
2022/10/09 07:13:29;;;;;;;2.95;0.35;;;22.40;40.40;;;;;;5058618;28;20516;-54
2022/10/09 07:15:56;;;;;;;1.08;0.47;;;22.40;40.40;;;;;;5063546;28;20127;-53
2022/10/09 07:18:23;;;;;;;2.55;0.22;;;22.40;40.40;;;;;;5062503;28;20041;-54
2022/10/09 07:20:52;;;;;;;2.63;0.47;;;22.40;40.40;;;;;;5058042;28;20611;-51
2022/10/09 07:23:19;;;;;;;0.73;0.30;;;22.40;40.30;;;;;;5059600;28;20048;-51
2022/10/09 07:25:46;;;;;;;1.92;0.28;;;22.50;40.50;;;;;;5064394;28;20044;-51
2022/10/09 07:28:13;;;;;;;3.40;0.43;;;22.50;40.50;;;;;;5064316;28;20063;-51
2022/10/09 07:30:40;;;;;;;1.38;0.40;;;22.40;40.40;;;;;;5069197;28;20049;-54
2022/10/09 07:33:07;;;;;;;1.50;0.40;;;22.50;40.40;;;;;;5057617;28;20045;-51
2022/10/09 07:35:34;;;;;;;0.93;0.35;;;22.50;40.30;;;;;;5069659;28;20043;-51
2022/10/09 07:38:03;;;;;;;0.65;0.30;;;22.50;40.30;;;;;;5069551;28;20047;-52
2022/10/09 07:40:30;;;;;;;3.05;0.30;;;22.50;40.20;;;;;;5055982;28;20505;-54
2022/10/09 07:42:57;;;;;;;2.05;0.65;;;22.50;40.20;;;;;;5050819;28;20779;-48
2022/10/09 07:45:24;;;;;;;1.67;0.30;;;22.50;40.30;;;;;;5069608;28;20127;-51
2022/10/09 07:47:51;;;;;;;1.65;0.50;;;22.50;40.20;;;;;;5066268;28;20051;-49
2022/10/09 07:50:18;;;;;;;1.05;0.30;;;22.50;40.20;;;;;;5050118;28;20047;-51
2022/10/09 07:52:45;;;;;;;2.30;0.20;;;22.50;40.20;;;;;;5064149;28;20036;-49
2022/10/09 07:55:13;;;;;;;0.52;0.20;;;22.50;40.10;;;;;;5056996;28;20064;-50
2022/10/09 07:57:40;;;;;;;0.55;0.20;;;22.50;40.10;;;;;;5065777;28;20064;-53
2022/10/09 08:00:09;;;;;;;2.53;0.35;;;22.50;40.10;;;;;;5059735;28;20527;-51
2022/10/09 08:02:39;;;;;;;0.30;0.20;;;22.50;39.90;;;;;;5062237;28;20462;-51
2022/10/09 08:05:06;;;;;;;0.75;0.20;;;22.50;39.90;;;;;;5069185;28;20054;-51
2022/10/09 08:07:33;;;;;;;0.95;0.20;;;22.50;39.90;;;;;;5061659;28;20048;-54
2022/10/09 08:10:00;;;;;;;0.60;0.22;;;22.50;39.80;;;;;;5062266;28;20127;-53
2022/10/09 08:12:29;;;;;;;1.27;0.10;;;22.50;39.80;;;;;;5069474;28;20036;-55
2022/10/09 08:14:56;;;;;;;1.05;0.20;;;22.60;39.80;;;;;;5061228;28;20056;-52
2022/10/09 08:17:23;;;;;;;1.40;0.13;;;22.50;39.70;;;;;;5049465;28;20045;-55
2022/10/09 08:19:50;;;;;;;0.68;0.10;;;22.60;39.70;;;;;;5049768;28;20110;-50
2022/10/09 08:22:17;;;;;;;1.38;0.10;;;22.60;39.80;;;;;;5049295;28;20049;-54
2022/10/09 08:24:44;;;;;;;1.42;0.20;;;22.60;39.70;;;;;;5050544;28;20494;-56
2022/10/09 08:27:11;;;;;;;1.88;0.20;;;22.60;39.70;;;;;;5050046;28;20090;-51
2022/10/09 08:29:39;;;;;;;2.05;0.20;;;22.60;39.50;;;;;;5049973;28;20048;-53
2022/10/09 08:32:06;;;;;;;2.72;0.30;;;22.60;39.60;;;;;;5050219;28;20422;-54
2022/10/09 08:34:33;;;;;;;3.15;0.13;;;22.60;39.50;;;;;;5051302;28;20041;-52
2022/10/09 08:37:00;;;;;;;0.20;0.10;;;22.60;39.30;;;;;;5061847;28;20043;-53
2022/10/09 08:39:29;;;;;;;4.50;0.30;;;22.60;39.30;;;;;;5056773;28;20818;-54
2022/10/09 08:42:00;;;;;;;1.83;0.30;;;22.60;39.20;;;;;;5069006;28;20040;-52
2022/10/09 08:44:31;;;;;;;0.57;0.20;;;22.60;39.20;;;;;;5069140;28;20088;-53
2022/10/09 08:47:05;;;;;;;2.25;0.13;;;22.60;39.10;;;;;;5068818;28;20049;-51
2022/10/09 08:49:43;;;;;;;2.70;0.10;;;22.60;39.10;;;;;;5054597;28;20124;-53
2022/10/09 08:52:37;;;;;;;2.28;0.20;;;22.70;39.20;;;;;;5058144;28;20045;-54
2022/10/09 08:55:12;;;;;;;2.90;0.95;;;22.60;39.20;;;;;;5048263;28;20116;-50
2022/10/09 08:57:40;;;;;;;0.68;0.10;;;22.60;39.10;;;;;;5049149;28;20043;-50
2022/10/09 09:00:14;;;;;;;2.13;0.13;;;22.60;39.20;;;;;;5055613;28;20041;-50
2022/10/09 09:02:57;;;;;;;1.50;0.43;;;22.60;39.10;;;;;;5056209;28;20045;-50
2022/10/09 09:05:36;;;;;;;0.57;0.13;;;22.70;39.10;;;;;;5049226;28;20200;-50
2022/10/09 09:08:15;;;;;;;1.60;0.90;;;22.70;39.10;;;;;;5048790;28;20040;-49
2022/10/09 09:10:49;;;;;;;1.02;0.20;;;22.70;39.20;;;;;;5044056;28;20052;-53
2022/10/09 09:13:31;;;;;;;0.45;0.38;;;22.70;39.20;;;;;;5050206;28;20125;-50
2022/10/09 09:16:04;;;;;;;1.20;0.10;;;22.70;39.20;;;;;;5067639;28;20044;-52
2022/10/09 09:18:38;;;;;;;2.35;0.68;;;22.70;39.20;;;;;;5065040;28;20147;-54
2022/10/09 09:21:14;;;;;;;0.20;0.10;;;22.70;39.20;;;;;;5062592;28;20044;-51
2022/10/09 09:23:46;;;;;;;1.20;0.28;;;22.70;39.20;;;;;;5067285;28;20139;-51
2022/10/09 09:26:17;;;;;;;1.17;0.30;;;22.80;39.20;;;;;;5048604;28;20060;-51
2022/10/09 09:28:44;;;;;;;1.05;0.30;;;22.70;39.10;;;;;;5055577;28;20127;-49
2022/10/09 09:31:17;;;;;;;1.98;0.10;;;22.70;39.10;;;;;;5067144;28;20040;-50
2022/10/09 09:33:52;;;;;;;0.47;0.10;;;22.80;39.20;;;;;;5065956;28;20433;-52
2022/10/09 09:36:24;;;;;;;0.63;0.30;;;22.80;39.10;;;;;;5054185;28;20044;-54
2022/10/09 09:38:52;;;;;;;2.47;0.10;;;22.80;39.30;;;;;;5067268;28;20055;-53
2022/10/09 09:41:19;;;;;;;1.17;0.10;;;22.80;39.30;;;;;;5067662;28;20428;-50
2022/10/09 09:43:47;;;;;;;1.85;0.50;;;22.80;39.20;;;;;;5056758;28;20525;-51
2022/10/09 09:46:16;;;;;;;2.08;0.50;;;22.80;39.20;;;;;;5061688;28;20036;-53
2022/10/09 09:48:47;;;;;;;1.40;0.40;;;22.80;39.20;;;;;;5056686;28;20052;-53
2022/10/09 09:51:17;;;;;;;0.68;0.17;;;22.90;39.20;;;;;;5048264;28;20044;-52
2022/10/09 09:53:48;;;;;;;0.30;0.10;;;22.90;39.20;;;;;;5054528;28;20044;-54
2022/10/09 09:56:16;;;;;;;0.75;0.10;;;22.90;39.30;;;;;;5067491;28;20036;-51
2022/10/09 09:58:46;;;;;;;0.10;0.10;;;22.90;39.30;;;;;;5067133;28;20044;-51
2022/10/09 10:01:23;;;;;;;6.03;0.10;;;22.90;39.20;;;;;;5050281;28;20394;-54
2022/10/09 10:03:53;;;;;;;2.65;0.60;;;22.90;39.20;;;;;;5051741;28;20052;-53
2022/10/09 10:06:22;;;;;;;1.95;0.20;;;22.90;39.20;;;;;;5048208;28;20114;-51
2022/10/09 10:08:58;;;;;;;0.40;0.10;;;23.00;39.20;;;;;;5047900;28;20413;-53
2022/10/09 10:11:26;;;;;;;2.00;0.20;;;23.00;39.20;;;;;;5048002;28;20067;-51
2022/10/09 10:13:53;;;;;;;1.30;0.32;;;23.00;39.20;;;;;;5048013;28;20257;-52
2022/10/09 10:16:23;;;;;;;0.80;0.10;;;23.10;39.20;;;;;;5048221;28;20048;-51
2022/10/09 10:18:53;;;;;;;1.73;0.38;;;23.10;39.80;;;;;;5055818;28;20509;-49
2022/10/09 10:21:21;;;;;;;2.83;0.10;;;23.10;39.20;;;;;;5063332;28;20968;-52
2022/10/09 10:23:53;;;;;;;2.92;0.40;;;23.10;39.20;;;;;;5071200;28;20045;-50
2022/10/09 10:26:26;;;;;;;0.20;0.13;;;23.10;39.20;;;;;;5070746;28;20098;-52
2022/10/09 10:28:59;;;;;;;1.27;0.10;;;23.20;39.20;;;;;;5059265;28;20052;-53
2022/10/09 10:31:37;;;;;;;0.55;0.10;;;23.20;39.30;;;;;;5051902;28;20474;-52
2022/10/09 10:34:11;;;;;;;1.55;0.20;;;23.30;39.30;;;;;;5051704;28;20941;-49
2022/10/09 10:36:38;;;;;;;3.78;0.10;;;23.30;39.30;;;;;;5051711;28;20047;-51
2022/10/09 10:39:12;;;;;;;0.85;0.15;;;23.30;39.20;;;;;;5064835;28;20495;-50
2022/10/09 10:41:45;;;;;;;0.68;0.10;;;23.40;39.20;;;;;;5059908;28;20064;-49
2022/10/09 10:44:21;;;;;;;0.10;0.10;;;23.40;39.10;;;;;;5060098;28;20048;-49
2022/10/09 10:46:53;;;;;;;1.88;0.30;;;23.50;39.20;;;;;;5069345;28;20068;-50
2022/10/09 10:49:22;;;;;;;0.47;0.20;;;23.50;39.20;;;;;;5056022;28;20037;-50
2022/10/09 10:52:17;;;;;;;2.78;0.10;;;23.50;39.10;;;;;;5062745;28;20124;-54
2022/10/09 10:54:52;;;;;;;5.07;0.65;;;23.60;39.10;;;;;;5049503;28;20075;-54
2022/10/09 10:57:26;;;;;;;3.45;0.22;;;23.60;39.20;;;;;;5060345;28;20044;-54
2022/10/09 11:00:02;;;;;;;0.90;0.90;;;23.60;39.30;;;;;;5067936;28;20056;-52
2022/10/09 11:03:01;;;;;;;0.68;0.30;;;23.70;39.40;;;;;;5070132;28;20098;-50
2022/10/09 11:05:41;;;;;;;1.90;0.40;;;23.70;39.40;;;;;;5046870;28;20060;-49
2022/10/09 11:08:40;;;;;;;0.20;0.10;;;23.70;39.40;;;;;;5055019;28;20588;-56
2022/10/09 11:11:13;;;;;;;0.63;0.20;;;23.80;39.50;;;;;;5044164;28;20159;-50
2022/10/09 11:13:52;;;;;;;0.95;0.10;;;23.80;39.50;;;;;;5051379;28;20041;-52
2022/10/09 11:16:39;;;;;;;2.80;0.20;;;23.90;39.50;;;;;;5067485;28;20055;-52
2022/10/09 11:19:21;;;;;;;0.60;0.15;;;24.00;39.60;;;;;;5062955;28;20040;-52
2022/10/09 11:21:59;;;;;;;1.95;0.47;;;24.00;39.60;;;;;;5069608;28;20075;-54
2022/10/09 11:25:01;;;;;;;2.20;0.75;;;24.00;39.60;;;;;;5063515;28;20037;-50
2022/10/09 11:27:36;;;;;;;1.38;0.20;;;24.10;39.50;;;;;;5062963;28;20569;-52
2022/10/09 11:30:08;;;;;;;1.23;0.17;;;24.10;39.70;;;;;;5050830;28;20045;-54
2022/10/09 11:32:40;;;;;;;0.13;0.10;;;24.10;39.60;;;;;;5049121;28;20102;-53
2022/10/09 11:35:15;;;;;;;0.35;0.10;;;24.20;39.60;;;;;;5053328;28;20044;-51
2022/10/09 11:37:50;;;;;;;0.43;0.10;;;24.20;39.60;;;;;;5053375;28;20131;-52
2022/10/09 11:40:22;;;;;;;0.40;0.10;;;24.30;39.70;;;;;;5050446;28;20045;-48
2022/10/09 11:42:58;;;;;;;1.75;0.20;;;24.30;39.70;;;;;;5053062;28;20501;-50
2022/10/09 11:45:31;;;;;;;0.25;0.10;;;24.40;39.70;;;;;;5050144;28;20041;-52
2022/10/09 11:48:05;;;;;;;0.45;0.10;;;24.40;39.70;;;;;;5045939;28;20166;-52
2022/10/09 11:50:46;;;;;;;0.40;0.10;;;24.40;39.60;;;;;;5050505;28;20052;-50
2022/10/09 11:53:17;;;;;;;0.10;0.10;;;24.50;39.70;;;;;;5054409;28;20112;-54
2022/10/09 11:55:45;;;;;;;0.65;0.08;;;24.50;39.70;;;;;;5069392;28;20412;-51
2022/10/09 11:58:22;;;;;;;1.25;0.30;;;24.60;39.70;;;;;;5068010;28;20044;-53
2022/10/09 12:00:53;;;;;;;0.10;0.10;;;24.60;39.70;;;;;;5061672;28;20048;-50
2022/10/09 12:03:32;;;;;;;1.45;0.10;;;24.60;39.70;;;;;;5069453;28;20045;-53
2022/10/09 12:06:08;;;;;;;0.75;0.10;;;24.70;39.70;;;;;;5048159;28;20460;-51
2022/10/09 12:08:39;;;;;;;1.38;0.10;;;24.70;39.60;;;;;;5049765;28;20049;-53
2022/10/09 12:11:13;;;;;;;0.10;0.10;;;24.70;39.60;;;;;;5049903;28;20068;-51
2022/10/09 12:13:44;;;;;;;0.68;0.10;;;24.80;39.70;;;;;;5053185;28;20412;-54
2022/10/09 12:16:38;;;;;;;0.45;0.45;;;24.80;39.60;;;;;;5069010;28;20044;-54
2022/10/09 12:19:15;;;;;;;0.32;0.10;;;24.90;39.60;;;;;;5062660;28;20052;-50
2022/10/09 12:21:48;;;;;;;1.63;0.10;;;24.90;39.60;;;;;;5063844;28;20133;-50
2022/10/09 12:24:22;;;;;;;0.10;0.00;;;25.00;39.70;;;;;;5058834;28;20578;-51
2022/10/09 12:26:50;;;;;;;0.80;0.10;;;25.00;39.60;;;;;;5048534;28;20064;-49
2022/10/09 12:29:27;;;;;;;0.52;0.05;;;25.00;39.60;;;;;;5048909;28;20044;-50
2022/10/09 12:31:58;;;;;;;0.68;0.10;;;25.10;39.60;;;;;;5052336;28;20504;-53
2022/10/09 12:34:28;;;;;;;0.50;0.00;;;25.10;39.70;;;;;;5057274;28;20040;-49
2022/10/09 12:37:11;;;;;;;1.17;0.10;;;25.20;39.70;;;;;;5062628;28;20076;-52
2022/10/09 12:39:39;;;;;;;0.65;0.10;;;25.20;39.70;;;;;;5061847;28;20574;-53
2022/10/09 12:42:14;;;;;;;0.25;0.00;;;25.30;39.80;;;;;;5051187;28;20057;-51
2022/10/09 12:44:43;;;;;;;2.75;0.08;;;25.30;39.80;;;;;;5067419;28;20508;-49
2022/10/09 12:47:17;;;;;;;0.82;0.10;;;25.30;39.70;;;;;;5068626;28;20127;-50
2022/10/09 12:49:56;;;;;;;0.73;0.10;;;25.40;39.80;;;;;;5067297;28;20110;-51
2022/10/09 12:52:23;;;;;;;0.10;0.10;;;25.40;39.70;;;;;;5063012;28;20037;-54
2022/10/09 12:54:51;;;;;;;0.38;0.38;;;25.40;39.70;;;;;;5061283;28;20048;-54
2022/10/09 12:57:19;;;;;;;0.75;0.00;;;25.50;39.70;;;;;;5068237;28;20094;-54
2022/10/09 12:59:47;;;;;;;1.00;0.10;;;25.50;39.70;;;;;;5068530;28;20040;-50
2022/10/09 13:02:15;;;;;;;0.10;0.10;;;25.60;39.70;;;;;;5055839;28;20048;-52